Terminal Aerodrome Forecast
Issued by NWS

Home | Current Version | Previous Version | Text Only | Print | Product List | Glossary Off
Versions: 1 2 3 4 5 6 7 8 9 10 11 12

681
FTUS43 KBIS 172335
TAFJMS
TAF
KJMS 172335Z 1800/1824 03010KT P6SM SCT120
     FM180800 04005KT P6SM OVC060
     FM181300 01007KT P6SM OVC070
     FM182000 01010KT P6SM VCSH OVC050=

USA.gov is the U.S. government's official web portal to all federal, state and local government web resources and services.